CheckWX is a tool to help pilots better visualize weather data.  It is not intended as a substitute for an official pre-flight weather briefing.

06:58:33 UTC

KDRT TAF
Del Rio International Airport
Del Rio, Texas, USA
KDRT 190542Z 1906/2006 11007KT P6SM VCSH SCT090 BKN150 FM191100 10006KT P6SM SCT015 FM191500 13008KT P6SM SCT100 SCT250 FM192300 14012KT P6SM VCSH SCT080 BKN200

Jun-19@
06:00 UTC

Jun-19 @ 06:00 UTC

Jun-19@
11:00 UTC

Jun-19 @ 11:00 UTC

KDRT 190542Z 1906/2006 11007KT P6SM VCSH SCT090 BKN150
Wind
  • 110° at 7 KTS
Cloud Levels
  • Scattered at 9,000' AGL
  • Broken at 15,000' AGL

Jun-19@
11:00 UTC

Jun-19 @ 11:00 UTC

Jun-19@
15:00 UTC

Jun-19 @ 15:00 UTC

FM191100 10006KT P6SM SCT015

From

From Standard forecast or significant change

Wind
  • 100° at 6 KTS
Cloud Levels
  • Scattered at 1,500' AGL

Jun-19@
15:00 UTC

Jun-19 @ 15:00 UTC

Jun-19@
23:00 UTC

Jun-19 @ 23:00 UTC

FM191500 13008KT P6SM SCT100 SCT250

From

From Standard forecast or significant change

Wind
  • 130° at 8 KTS
Cloud Levels
  • Scattered at 10,000' AGL
  • Scattered at 25,000' AGL

Jun-19@
23:00 UTC

Jun-19 @ 23:00 UTC

Jun-20@
06:00 UTC

Jun-20 @ 06:00 UTC

FM192300 14012KT P6SM VCSH SCT080 BKN200

From

From Standard forecast or significant change

Wind
  • 140° at 12 KTS
Cloud Levels
  • Scattered at 8,000' AGL
  • Broken at 20,000' AGL